Time;durP1;ratioP1;P1;durP2;ratioP2;P2;SDS_P1;SDS_P2;PMS_P1;PMS_P2;Temp;Humidity;BMP_temperature;BMP_pressure;BME280_temperature;BME280_humidity;BME280_pressure;Samples;Min_cycle;Max_cycle;Signal;HPM_P1;HPM_P2
2022/01/31 00:01:50;;;;;;;12.53;4.93;;;15.10;54.00;;;;;;4955091;29;20482;-84
2022/01/31 00:04:18;;;;;;;18.13;5.03;;;15.00;53.90;;;;;;4952092;29;20507;-84
2022/01/31 00:06:48;;;;;;;16.50;4.70;;;15.00;54.00;;;;;;4955863;28;20470;-83
2022/01/31 00:09:18;;;;;;;16.60;4.77;;;15.00;53.80;;;;;;4954770;28;20972;-83
2022/01/31 00:11:55;;;;;;;14.63;4.40;;;15.00;53.80;;;;;;4960674;29;20509;-84
2022/01/31 00:14:32;;;;;;;18.30;4.97;;;15.00;53.70;;;;;;4945368;28;20533;-83
2022/01/31 00:17:00;;;;;;;18.53;4.93;;;15.00;53.80;;;;;;4963118;29;20450;-84
2022/01/31 00:19:28;;;;;;;16.60;4.57;;;15.00;53.60;;;;;;4963322;29;20456;-84
2022/01/31 00:21:57;;;;;;;17.07;5.60;;;15.00;53.60;;;;;;4965896;29;20447;-84
2022/01/31 00:24:25;;;;;;;13.30;4.77;;;15.00;53.80;;;;;;4961782;28;20482;-84
2022/01/31 00:26:53;;;;;;;15.77;4.77;;;14.90;53.40;;;;;;4953355;29;20440;-84
2022/01/31 00:29:21;;;;;;;14.30;4.70;;;14.90;53.40;;;;;;4944080;29;20448;-82
2022/01/31 00:31:49;;;;;;;14.27;4.20;;;14.90;53.20;;;;;;4945204;29;20513;-82
2022/01/31 00:34:17;;;;;;;10.30;4.00;;;14.90;53.20;;;;;;4947701;29;20459;-82
2022/01/31 00:36:45;;;;;;;22.83;4.97;;;14.90;53.10;;;;;;4955909;29;20442;-82
2022/01/31 00:39:14;;;;;;;21.10;4.93;;;14.90;53.20;;;;;;4952835;29;21022;-83
2022/01/31 00:41:42;;;;;;;18.47;4.60;;;14.90;53.10;;;;;;4957749;28;20447;-83
2022/01/31 00:44:24;;;;;;;15.17;4.17;;;14.90;53.10;;;;;;4941635;29;20530;-83
2022/01/31 00:46:58;;;;;;;25.50;5.37;;;14.90;53.10;;;;;;4943706;28;20466;-83
2022/01/31 00:49:36;;;;;;;16.87;4.60;;;14.90;53.20;;;;;;4962199;28;20477;-83
2022/01/31 00:52:04;;;;;;;17.87;5.13;;;14.90;53.10;;;;;;4960494;28;20474;-83
2022/01/31 00:54:34;;;;;;;16.13;4.53;;;14.90;53.80;;;;;;4957995;29;20447;-83
2022/01/31 00:57:01;;;;;;;20.30;5.23;;;14.90;53.10;;;;;;4965636;28;20462;-83
2022/01/31 00:59:29;;;;;;;14.93;4.90;;;14.90;53.00;;;;;;4963055;28;20451;-83
2022/01/31 01:01:57;;;;;;;16.17;5.10;;;14.90;53.10;;;;;;4958682;28;20447;-83
2022/01/31 01:04:26;;;;;;;15.50;4.67;;;14.80;53.10;;;;;;4957607;29;20460;-83
2022/01/31 01:06:53;;;;;;;12.27;4.10;;;14.80;53.10;;;;;;4961967;28;20442;-83
2022/01/31 01:09:21;;;;;;;15.40;4.40;;;14.90;53.10;;;;;;4975005;28;20442;-83
2022/01/31 01:11:51;;;;;;;18.40;4.60;;;14.80;53.00;;;;;;4956391;29;20471;-83
2022/01/31 01:14:18;;;;;;;19.77;4.57;;;14.80;53.70;;;;;;4965331;28;20474;-84
2022/01/31 01:16:46;;;;;;;18.17;4.20;;;14.80;53.10;;;;;;4958322;28;20443;-84
2022/01/31 01:19:14;;;;;;;13.93;4.53;;;14.80;53.10;;;;;;4956841;29;20807;-83
2022/01/31 01:21:42;;;;;;;15.07;4.40;;;14.80;53.30;;;;;;4969025;28;20458;-82
2022/01/31 01:24:10;;;;;;;11.43;3.73;;;14.80;53.80;;;;;;4967662;28;20526;-82
2022/01/31 01:26:38;;;;;;;13.67;4.50;;;14.80;53.20;;;;;;4956841;29;20475;-83
2022/01/31 01:29:07;;;;;;;15.17;4.37;;;14.70;53.20;;;;;;4958832;28;20473;-83
2022/01/31 01:31:35;;;;;;;13.00;4.17;;;14.70;53.10;;;;;;4962208;28;20490;-83
2022/01/31 01:34:03;;;;;;;14.83;4.13;;;14.70;53.00;;;;;;4962577;28;20474;-83
2022/01/31 01:36:32;;;;;;;17.63;5.00;;;14.70;52.90;;;;;;4958612;28;20468;-83
2022/01/31 01:39:00;;;;;;;15.27;4.53;;;14.70;53.10;;;;;;4962119;29;21013;-83
2022/01/31 01:41:28;;;;;;;12.13;4.20;;;14.70;52.90;;;;;;4962031;28;20436;-83
2022/01/31 01:43:57;;;;;;;17.87;4.30;;;14.70;53.00;;;;;;4959580;29;20455;-84
2022/01/31 01:46:28;;;;;;;14.90;4.43;;;14.70;52.80;;;;;;4956185;28;21101;-84
2022/01/31 01:48:56;;;;;;;11.93;4.50;;;14.70;52.90;;;;;;4957211;28;20465;-84
2022/01/31 01:51:24;;;;;;;15.53;4.33;;;14.70;52.80;;;;;;4969896;28;20568;-84
2022/01/31 01:53:52;;;;;;;12.20;4.47;;;14.70;52.70;;;;;;4967871;28;20459;-84
2022/01/31 01:56:20;;;;;;;16.97;4.93;;;14.70;52.50;;;;;;4960756;29;20466;-85
2022/01/31 01:58:49;;;;;;;18.10;4.50;;;14.70;52.50;;;;;;4963528;29;20479;-83
2022/01/31 02:01:17;;;;;;;14.53;4.00;;;14.70;52.40;;;;;;4962810;29;20447;-84
2022/01/31 02:03:46;;;;;;;12.67;3.80;;;14.70;52.40;;;;;;4956324;29;20971;-84
2022/01/31 02:06:14;;;;;;;14.77;4.23;;;14.70;52.30;;;;;;4952440;28;20494;-84
2022/01/31 02:08:44;;;;;;;15.80;3.70;;;14.70;52.30;;;;;;4972779;28;20850;-84
2022/01/31 02:11:13;;;;;;;17.20;4.10;;;14.60;52.20;;;;;;4972054;28;20533;-83
2022/01/31 02:13:41;;;;;;;13.37;4.20;;;14.60;52.10;;;;;;4961139;29;20466;-83
2022/01/31 02:16:09;;;;;;;15.47;4.80;;;14.60;52.00;;;;;;4962015;29;20518;-85
2022/01/31 02:18:45;;;;;;;13.30;4.03;;;14.60;52.10;;;;;;4961510;28;20451;-84
2022/01/31 02:21:14;;;;;;;12.37;4.20;;;14.60;52.10;;;;;;4961690;29;20454;-83
2022/01/31 02:23:42;;;;;;;16.97;4.03;;;14.60;52.10;;;;;;4967843;28;20513;-85
2022/01/31 02:26:10;;;;;;;19.27;4.90;;;14.60;52.10;;;;;;4966397;28;20450;-83
2022/01/31 02:28:39;;;;;;;15.80;4.37;;;14.60;52.10;;;;;;4980888;28;20446;-84
2022/01/31 02:31:07;;;;;;;23.30;4.33;;;14.60;52.00;;;;;;4981204;28;20464;-85
2022/01/31 02:33:35;;;;;;;16.27;3.80;;;14.60;51.90;;;;;;4962662;28;20486;-84
2022/01/31 02:36:04;;;;;;;24.33;5.67;;;14.60;52.10;;;;;;4963164;28;20502;-85
2022/01/31 02:38:33;;;;;;;11.77;4.20;;;14.60;52.10;;;;;;4961633;29;20450;-84
2022/01/31 02:41:03;;;;;;;21.70;5.47;;;14.60;51.90;;;;;;4964518;28;20497;-82
2022/01/31 02:43:32;;;;;;;14.27;4.53;;;14.60;51.90;;;;;;4976293;28;20458;-83
2022/01/31 02:46:01;;;;;;;12.40;4.63;;;14.60;52.00;;;;;;4965284;28;20478;-82
2022/01/31 02:48:33;;;;;;;17.00;4.40;;;14.60;51.80;;;;;;4951940;29;20451;-83
2022/01/31 02:51:03;;;;;;;21.43;4.63;;;14.60;51.80;;;;;;4945920;29;20521;-83
2022/01/31 02:53:40;;;;;;;11.87;3.97;;;14.60;51.90;;;;;;4945580;29;20472;-84
2022/01/31 02:56:08;;;;;;;21.67;4.60;;;14.60;51.80;;;;;;4943370;28;20532;-82
2022/01/31 02:58:36;;;;;;;10.97;4.13;;;14.50;51.80;;;;;;4952203;28;20479;-82
2022/01/31 03:01:04;;;;;;;12.53;4.07;;;14.50;51.90;;;;;;4945708;29;20483;-83
2022/01/31 03:03:32;;;;;;;17.40;4.30;;;14.50;52.00;;;;;;4949217;29;20466;-83
2022/01/31 03:06:00;;;;;;;16.90;4.70;;;14.50;52.00;;;;;;4951932;29;20444;-83
2022/01/31 03:08:30;;;;;;;10.70;4.00;;;14.40;51.90;;;;;;4947323;29;20511;-82
2022/01/31 03:10:59;;;;;;;15.13;4.30;;;14.40;52.00;;;;;;4943337;28;20472;-82
2022/01/31 03:13:27;;;;;;;14.03;3.97;;;14.40;51.90;;;;;;4954374;28;20474;-83
2022/01/31 03:15:56;;;;;;;11.10;4.03;;;14.30;51.90;;;;;;4950705;28;20468;-83
2022/01/31 03:18:24;;;;;;;15.07;4.50;;;14.30;52.00;;;;;;4947640;29;20499;-82
2022/01/31 03:20:52;;;;;;;11.93;4.23;;;14.30;52.20;;;;;;4948997;29;20519;-82
2022/01/31 03:23:20;;;;;;;15.80;4.73;;;14.30;52.20;;;;;;4948283;28;20464;-82
2022/01/31 03:25:49;;;;;;;7.93;4.23;;;14.20;52.20;;;;;;4948298;29;20479;-82
2022/01/31 03:28:18;;;;;;;20.73;4.60;;;14.20;52.40;;;;;;4947813;29;20491;-82
2022/01/31 03:30:46;;;;;;;11.60;3.90;;;14.20;52.40;;;;;;4954303;28;20459;-82
2022/01/31 03:33:14;;;;;;;14.13;3.83;;;14.20;52.50;;;;;;4951095;28;20562;-82
2022/01/31 03:35:42;;;;;;;12.53;4.50;;;14.20;52.60;;;;;;4948294;28;20499;-82
2022/01/31 03:38:10;;;;;;;16.57;4.73;;;14.20;52.60;;;;;;4948035;29;20447;-82
2022/01/31 03:40:38;;;;;;;12.07;4.00;;;14.20;52.50;;;;;;4947797;28;20448;-81
2022/01/31 03:43:06;;;;;;;7.13;4.17;;;14.20;52.40;;;;;;4949834;29;20443;-81
2022/01/31 03:45:35;;;;;;;12.63;4.63;;;14.10;53.00;;;;;;4958611;28;20482;-81
2022/01/31 03:48:06;;;;;;;11.97;5.13;;;14.10;52.60;;;;;;4961210;28;20481;-83
2022/01/31 03:50:34;;;;;;;15.50;4.57;;;14.10;52.60;;;;;;4977042;28;20454;-80
2022/01/31 03:53:01;;;;;;;14.27;4.17;;;14.00;52.60;;;;;;4976394;28;20553;-81
2022/01/31 03:55:29;;;;;;;12.80;4.40;;;14.00;52.70;;;;;;4976735;28;20587;-81
2022/01/31 03:57:57;;;;;;;10.00;4.60;;;14.00;52.80;;;;;;4976616;28;20442;-81
2022/01/31 04:00:25;;;;;;;11.50;4.63;;;13.90;52.70;;;;;;4975941;28;20470;-82
2022/01/31 04:02:55;;;;;;;11.67;4.07;;;13.90;52.80;;;;;;4963536;28;20467;-82
2022/01/31 04:05:23;;;;;;;13.73;4.20;;;13.90;52.90;;;;;;4965736;28;20489;-82
2022/01/31 04:07:51;;;;;;;11.57;4.30;;;13.90;52.90;;;;;;4957538;28;20460;-82
2022/01/31 04:10:19;;;;;;;10.00;4.13;;;13.90;52.80;;;;;;4957560;29;20474;-82
2022/01/31 04:12:47;;;;;;;10.60;3.70;;;13.90;52.90;;;;;;4957331;29;20482;-82
2022/01/31 04:15:15;;;;;;;11.97;4.23;;;13.80;52.80;;;;;;4957533;28;20558;-82
2022/01/31 04:17:42;;;;;;;13.60;4.73;;;13.80;52.80;;;;;;4956835;29;20439;-81
2022/01/31 04:20:12;;;;;;;9.00;3.80;;;13.80;52.90;;;;;;4968299;28;20454;-82
2022/01/31 04:22:46;;;;;;;10.97;4.10;;;13.80;52.90;;;;;;4954735;28;20456;-82
2022/01/31 04:25:28;;;;;;;12.33;4.20;;;13.80;52.90;;;;;;4957438;28;20451;-81
2022/01/31 04:28:02;;;;;;;8.03;4.07;;;13.80;53.00;;;;;;4956582;29;20467;-82
2022/01/31 04:30:30;;;;;;;8.93;3.90;;;13.80;53.00;;;;;;4956996;29;20442;-81
2022/01/31 04:32:58;;;;;;;8.93;4.13;;;13.70;52.90;;;;;;4956364;29;20467;-80
2022/01/31 04:35:27;;;;;;;11.80;4.03;;;13.70;53.40;;;;;;4956728;28;20455;-80
2022/01/31 04:37:56;;;;;;;9.43;3.90;;;13.70;52.80;;;;;;4960071;28;20493;-81
2022/01/31 04:40:24;;;;;;;9.70;4.20;;;13.70;53.00;;;;;;4976210;28;20509;-81
2022/01/31 04:42:52;;;;;;;7.43;4.00;;;13.70;53.10;;;;;;4975731;28;20553;-81
2022/01/31 04:45:20;;;;;;;7.33;4.03;;;13.60;53.00;;;;;;4975026;28;20469;-81
2022/01/31 04:47:47;;;;;;;12.53;3.90;;;13.70;53.00;;;;;;4961613;28;20443;-83
2022/01/31 04:50:15;;;;;;;9.43;3.60;;;13.70;52.90;;;;;;4954804;29;20439;-81
2022/01/31 04:52:45;;;;;;;10.70;4.47;;;13.60;52.90;;;;;;4956926;29;20471;-80
2022/01/31 04:55:12;;;;;;;6.77;3.90;;;13.60;52.90;;;;;;4959870;28;20537;-80
2022/01/31 04:57:41;;;;;;;7.77;4.30;;;13.60;53.00;;;;;;4964712;28;20483;-81
2022/01/31 05:00:10;;;;;;;8.73;4.47;;;13.60;53.00;;;;;;4956793;29;20443;-81
2022/01/31 05:02:37;;;;;;;10.07;4.90;;;13.60;53.00;;;;;;4957117;29;20463;-81
2022/01/31 05:05:06;;;;;;;7.50;4.10;;;13.60;53.10;;;;;;4956419;28;20567;-81
2022/01/31 05:07:35;;;;;;;11.23;4.40;;;13.60;53.00;;;;;;4956997;29;20439;-81
2022/01/31 05:10:05;;;;;;;13.27;4.50;;;13.50;52.90;;;;;;4957313;29;20431;-81
2022/01/31 05:12:32;;;;;;;10.07;4.13;;;13.50;53.10;;;;;;4960968;28;20455;-81
2022/01/31 05:15:00;;;;;;;9.40;4.37;;;13.50;53.10;;;;;;4962426;28;20463;-81
2022/01/31 05:17:28;;;;;;;13.00;4.43;;;13.50;53.20;;;;;;4956587;29;20452;-80
2022/01/31 05:19:56;;;;;;;7.03;3.90;;;13.50;53.20;;;;;;4956950;29;20479;-81
2022/01/31 05:22:24;;;;;;;7.23;4.07;;;13.60;53.40;;;;;;4956986;29;20431;-82
2022/01/31 05:24:52;;;;;;;7.33;3.67;;;13.50;53.30;;;;;;4956482;28;20878;-82
2022/01/31 05:27:21;;;;;;;5.53;3.53;;;13.50;53.30;;;;;;4956449;29;20991;-82
2022/01/31 05:29:49;;;;;;;7.80;4.03;;;13.50;53.30;;;;;;4959071;28;20455;-81
2022/01/31 05:32:17;;;;;;;9.57;4.23;;;13.50;53.40;;;;;;4964631;28;20459;-81
2022/01/31 05:34:45;;;;;;;8.03;4.33;;;13.50;53.50;;;;;;4957031;28;20521;-81
2022/01/31 05:37:14;;;;;;;7.80;3.80;;;13.50;53.50;;;;;;4953422;29;20522;-81
2022/01/31 05:39:43;;;;;;;8.17;3.30;;;13.50;53.50;;;;;;4957127;29;20478;-81
2022/01/31 05:42:11;;;;;;;10.53;3.87;;;13.50;53.60;;;;;;4956375;29;20471;-81
2022/01/31 05:44:42;;;;;;;7.03;3.73;;;13.50;53.60;;;;;;4955279;28;20458;-81
2022/01/31 05:47:10;;;;;;;8.30;4.03;;;13.50;53.70;;;;;;4963771;28;20450;-81
2022/01/31 05:49:38;;;;;;;7.97;3.80;;;13.50;53.70;;;;;;4975566;28;20450;-81
2022/01/31 05:52:07;;;;;;;12.03;4.10;;;13.50;53.90;;;;;;4975751;28;20489;-81
2022/01/31 05:54:36;;;;;;;6.73;3.67;;;13.60;53.70;;;;;;4975967;28;20994;-81
2022/01/31 05:57:04;;;;;;;7.83;4.00;;;13.60;53.70;;;;;;4975510;28;20446;-80
2022/01/31 05:59:32;;;;;;;5.20;2.93;;;13.60;53.90;;;;;;4976175;28;20447;-80
2022/01/31 06:02:02;;;;;;;5.03;3.50;;;13.60;53.80;;;;;;4975403;28;20435;-81
2022/01/31 06:04:30;;;;;;;7.90;3.63;;;13.60;53.90;;;;;;4963155;28;20474;-80
2022/01/31 06:06:58;;;;;;;8.40;3.93;;;13.60;53.70;;;;;;4955471;28;20510;-81
2022/01/31 06:09:27;;;;;;;10.00;4.13;;;13.60;53.90;;;;;;4955713;29;20443;-81
2022/01/31 06:11:55;;;;;;;10.30;3.80;;;13.60;53.70;;;;;;4956117;29;20478;-81
2022/01/31 06:14:24;;;;;;;5.00;3.27;;;13.70;53.90;;;;;;4955154;28;20479;-80
2022/01/31 06:16:51;;;;;;;5.17;3.80;;;13.70;54.00;;;;;;4955716;29;20482;-82
2022/01/31 06:19:21;;;;;;;6.47;3.40;;;13.70;53.90;;;;;;4955702;29;20479;-81
2022/01/31 06:21:49;;;;;;;6.83;3.17;;;13.70;53.90;;;;;;4958104;28;20579;-82
2022/01/31 06:24:17;;;;;;;3.40;3.10;;;13.70;54.00;;;;;;4965925;28;20493;-82
2022/01/31 06:26:44;;;;;;;4.67;3.43;;;13.70;54.00;;;;;;4959469;29;20470;-82
2022/01/31 06:29:12;;;;;;;7.03;3.87;;;13.70;54.00;;;;;;4959360;29;20478;-82
2022/01/31 06:31:40;;;;;;;7.83;3.40;;;13.80;54.00;;;;;;4958936;29;20482;-81
2022/01/31 06:34:08;;;;;;;5.90;3.60;;;13.70;54.00;;;;;;4958891;28;20506;-82
2022/01/31 06:36:37;;;;;;;5.43;3.50;;;13.80;54.10;;;;;;4959531;28;20566;-82
2022/01/31 06:39:05;;;;;;;4.87;3.17;;;13.80;54.20;;;;;;4968834;28;20549;-82
2022/01/31 06:41:33;;;;;;;5.63;3.63;;;13.80;54.10;;;;;;4960514;28;20475;-82
2022/01/31 06:44:01;;;;;;;4.10;2.67;;;13.80;54.10;;;;;;4959243;28;20883;-81
2022/01/31 06:46:29;;;;;;;6.20;3.73;;;13.80;54.10;;;;;;4958901;29;20550;-81
2022/01/31 06:48:57;;;;;;;6.77;3.33;;;13.80;54.10;;;;;;4959193;29;20445;-80
2022/01/31 06:51:25;;;;;;;4.47;3.20;;;13.90;54.20;;;;;;4958685;28;20514;-82
2022/01/31 06:53:57;;;;;;;4.93;3.20;;;13.80;54.20;;;;;;4959214;28;20475;-81
2022/01/31 06:56:29;;;;;;;5.03;3.00;;;13.90;54.40;;;;;;4960210;28;20553;-82
2022/01/31 06:58:57;;;;;;;4.90;3.20;;;13.90;54.20;;;;;;4965939;28;20452;-81
2022/01/31 07:01:25;;;;;;;8.20;3.20;;;13.90;54.30;;;;;;4959242;29;20824;-82
2022/01/31 07:03:54;;;;;;;6.67;3.43;;;13.90;54.40;;;;;;4958877;28;20471;-82
2022/01/31 07:06:23;;;;;;;5.13;3.30;;;13.90;54.30;;;;;;4959319;29;20432;-81
2022/01/31 07:08:51;;;;;;;5.10;2.90;;;14.00;54.40;;;;;;4959461;29;20458;-82
2022/01/31 07:11:57;;;;;;;4.67;3.33;;;13.90;54.20;;;;;;4960162;28;20460;-82
2022/01/31 07:14:33;;;;;;;5.10;3.27;;;13.90;54.20;;;;;;4976138;28;20533;-81
2022/01/31 07:17:01;;;;;;;5.70;3.20;;;13.90;54.30;;;;;;4978121;28;20442;-79
2022/01/31 07:19:32;;;;;;;4.33;3.10;;;13.90;54.40;;;;;;4978554;28;20453;-79
2022/01/31 07:22:00;;;;;;;5.13;3.30;;;13.90;54.40;;;;;;4978855;28;20450;-81
2022/01/31 07:24:42;;;;;;;3.40;3.10;;;14.00;54.50;;;;;;4979634;28;20466;-81
2022/01/31 07:27:10;;;;;;;6.57;3.53;;;14.00;54.60;;;;;;4978900;28;20505;-81
2022/01/31 07:29:40;;;;;;;5.27;3.00;;;14.00;54.50;;;;;;4969295;28;20468;-81
2022/01/31 07:32:09;;;;;;;6.00;3.17;;;14.00;54.60;;;;;;4967260;28;20454;-81
2022/01/31 07:34:38;;;;;;;5.47;3.30;;;14.00;54.50;;;;;;4958276;28;20494;-80
2022/01/31 07:37:06;;;;;;;3.23;2.80;;;14.00;54.50;;;;;;4959354;29;20451;-80
2022/01/31 07:39:34;;;;;;;5.80;2.87;;;14.00;54.40;;;;;;4959013;29;20506;-80
2022/01/31 07:42:02;;;;;;;3.77;2.90;;;14.00;54.40;;;;;;4959649;29;20506;-80
2022/01/31 07:44:30;;;;;;;5.87;3.10;;;14.10;54.50;;;;;;4959601;28;20463;-80
2022/01/31 07:47:00;;;;;;;8.77;3.50;;;14.00;54.40;;;;;;4964369;28;20506;-81
2022/01/31 07:49:28;;;;;;;7.57;3.23;;;14.10;54.70;;;;;;4966696;28;20443;-81
2022/01/31 07:51:56;;;;;;;6.00;3.53;;;14.10;54.60;;;;;;4959393;29;20443;-81
2022/01/31 07:54:24;;;;;;;3.63;2.93;;;14.10;54.50;;;;;;4959226;28;20476;-81
2022/01/31 07:56:52;;;;;;;4.00;2.90;;;14.10;54.50;;;;;;4957766;29;20447;-82
2022/01/31 07:59:20;;;;;;;3.03;2.60;;;14.20;54.70;;;;;;4957850;29;20447;-81
2022/01/31 08:01:48;;;;;;;3.13;2.50;;;14.20;54.60;;;;;;4958009;29;20439;-82
2022/01/31 08:04:17;;;;;;;4.97;2.83;;;14.20;54.40;;;;;;4957454;28;20521;-82
2022/01/31 08:06:45;;;;;;;7.60;3.20;;;14.20;54.40;;;;;;4966240;28;20455;-81
2022/01/31 08:09:13;;;;;;;4.90;3.00;;;14.20;55.20;;;;;;4973020;28;20489;-81
2022/01/31 08:11:41;;;;;;;6.50;3.10;;;14.20;54.60;;;;;;4977515;28;20988;-81
2022/01/31 08:14:10;;;;;;;6.23;3.07;;;14.30;54.60;;;;;;4977681;28;20454;-81
2022/01/31 08:16:39;;;;;;;4.03;3.10;;;14.30;54.60;;;;;;4976712;28;20461;-81
2022/01/31 08:19:08;;;;;;;5.27;3.20;;;14.30;54.50;;;;;;4976810;28;20505;-81
2022/01/31 08:21:57;;;;;;;4.60;2.60;;;14.30;54.50;;;;;;4975462;28;20525;-81
2022/01/31 08:24:25;;;;;;;4.80;2.30;;;14.40;54.70;;;;;;4967164;28;20470;-79
2022/01/31 08:26:56;;;;;;;3.60;2.60;;;14.40;54.60;;;;;;4957915;29;20443;-80
2022/01/31 08:29:29;;;;;;;4.70;2.53;;;14.50;54.80;;;;;;4958020;29;20447;-80
2022/01/31 08:32:06;;;;;;;5.90;3.40;;;14.50;54.60;;;;;;4958458;29;20451;-80
2022/01/31 08:37:21;;;;;;;3.00;2.63;;;14.60;54.70;;;;;;4957414;29;20431;-79
2022/01/31 08:39:49;;;;;;;3.20;2.53;;;14.70;54.70;;;;;;4964972;28;20482;-81
2022/01/31 08:42:17;;;;;;;4.37;2.80;;;14.70;54.70;;;;;;4962316;28;20486;-80
2022/01/31 08:44:48;;;;;;;3.13;2.60;;;14.80;54.60;;;;;;4958580;28;20467;-80
2022/01/31 08:47:16;;;;;;;6.37;2.90;;;14.90;54.60;;;;;;4958011;28;20443;-81
2022/01/31 08:49:45;;;;;;;3.03;2.63;;;14.90;54.40;;;;;;4958740;29;20470;-82
2022/01/31 08:52:13;;;;;;;4.20;2.97;;;15.00;54.40;;;;;;4958283;29;20510;-82
2022/01/31 08:54:42;;;;;;;5.17;2.83;;;15.10;54.30;;;;;;4958737;28;20489;-82
2022/01/31 08:57:10;;;;;;;3.50;2.60;;;15.10;54.10;;;;;;4962337;28;20494;-82
2022/01/31 08:59:43;;;;;;;4.53;2.70;;;15.20;54.60;;;;;;4967184;28;20443;-82
2022/01/31 09:02:14;;;;;;;3.20;2.47;;;15.30;54.20;;;;;;4959536;29;20415;-82
2022/01/31 09:04:47;;;;;;;4.53;2.80;;;15.50;54.40;;;;;;4958137;28;20536;-82
2022/01/31 09:07:16;;;;;;;5.47;2.80;;;15.60;54.20;;;;;;4958435;29;20434;-82
2022/01/31 09:09:47;;;;;;;7.70;2.80;;;15.80;54.20;;;;;;4956530;29;20514;-82
2022/01/31 09:12:16;;;;;;;4.87;2.80;;;16.00;54.00;;;;;;4955162;28;20439;-82
2022/01/31 09:14:44;;;;;;;4.67;2.80;;;16.10;53.80;;;;;;4966727;28;20462;-83
2022/01/31 09:17:12;;;;;;;9.00;3.27;;;16.30;53.70;;;;;;4958096;29;20447;-81
2022/01/31 09:19:40;;;;;;;4.03;2.70;;;16.50;53.40;;;;;;4958800;29;20451;-81
2022/01/31 09:22:08;;;;;;;4.60;2.70;;;16.50;53.50;;;;;;4958940;29;20455;-80
2022/01/31 09:24:39;;;;;;;4.63;2.97;;;16.60;53.70;;;;;;4958219;28;20459;-82
2022/01/31 09:27:08;;;;;;;3.93;2.87;;;16.60;53.30;;;;;;4957872;29;20498;-81
2022/01/31 09:29:36;;;;;;;4.33;2.67;;;16.60;53.40;;;;;;4958310;29;20435;-82
2022/01/31 09:32:05;;;;;;;5.40;2.73;;;16.60;53.80;;;;;;4959695;28;20463;-82
2022/01/31 09:34:33;;;;;;;3.50;2.70;;;16.70;53.60;;;;;;4975235;28;20461;-81
2022/01/31 09:37:01;;;;;;;2.70;2.50;;;16.80;53.60;;;;;;4976616;28;20499;-80
2022/01/31 09:39:30;;;;;;;6.20;2.90;;;16.80;53.70;;;;;;4953631;29;20431;-81
2022/01/31 09:42:04;;;;;;;3.83;2.70;;;16.80;53.80;;;;;;4955967;29;20453;-80
2022/01/31 09:44:45;;;;;;;6.93;2.67;;;16.90;53.90;;;;;;4952414;29;20535;-81
2022/01/31 09:47:21;;;;;;;2.77;2.30;;;17.00;53.80;;;;;;4948381;28;20462;-80
2022/01/31 09:49:49;;;;;;;4.50;3.23;;;17.10;53.70;;;;;;4951804;28;20427;-80
2022/01/31 09:52:17;;;;;;;3.97;2.70;;;17.10;53.60;;;;;;4946091;29;20456;-81
2022/01/31 09:54:48;;;;;;;4.03;2.90;;;17.10;53.60;;;;;;4945364;29;20443;-82
2022/01/31 09:57:17;;;;;;;5.00;2.70;;;17.10;53.60;;;;;;4947105;28;20474;-82
2022/01/31 09:59:46;;;;;;;3.53;2.57;;;17.20;53.70;;;;;;4950940;29;20436;-81
2022/01/31 10:02:15;;;;;;;2.60;2.40;;;17.20;53.50;;;;;;4949942;29;20439;-81
2022/01/31 10:04:44;;;;;;;4.57;2.80;;;17.10;53.80;;;;;;4954022;28;20478;-80
2022/01/31 10:07:14;;;;;;;6.03;2.50;;;17.20;53.50;;;;;;4953101;28;20432;-81
2022/01/31 10:09:46;;;;;;;2.77;2.47;;;17.20;54.40;;;;;;4949412;29;20435;-81
2022/01/31 10:12:25;;;;;;;4.70;2.70;;;17.10;53.70;;;;;;4948787;29;20424;-81
2022/01/31 10:17:41;;;;;;;3.17;2.27;;;17.20;54.10;;;;;;4960387;29;20474;-82
2022/01/31 10:20:11;;;;;;;2.47;2.27;;;17.30;53.90;;;;;;4962699;28;20502;-81
2022/01/31 10:22:39;;;;;;;3.17;2.27;;;17.30;53.80;;;;;;4968803;28;20478;-82
2022/01/31 10:25:08;;;;;;;2.83;2.47;;;17.40;54.40;;;;;;4959740;28;20510;-82
2022/01/31 10:27:55;;;;;;;2.57;2.37;;;17.50;53.90;;;;;;4959761;29;20441;-83
2022/01/31 10:30:25;;;;;;;4.80;2.43;;;17.70;54.00;;;;;;4960732;29;20470;-82
2022/01/31 10:32:54;;;;;;;9.10;2.27;;;17.80;53.80;;;;;;4960969;29;20475;-81
2022/01/31 10:35:23;;;;;;;2.80;2.10;;;18.00;54.90;;;;;;4960769;28;20486;-82
2022/01/31 10:37:55;;;;;;;3.73;2.80;;;18.10;53.70;;;;;;4956349;28;20486;-82
2022/01/31 10:43:38;;;;;;;2.27;2.07;;;18.60;54.00;;;;;;4952498;29;20423;-83
2022/01/31 10:46:11;;;;;;;5.70;2.73;;;18.50;53.30;;;;;;4952116;29;20444;-81
2022/01/31 10:54:37;;;;;;;5.60;2.30;;;18.40;53.50;;;;;;4942361;29;20535;-82
2022/01/31 10:57:07;;;;;;;6.37;2.20;;;18.40;53.60;;;;;;4971320;28;20474;-82
2022/01/31 10:59:40;;;;;;;2.20;2.00;;;18.30;53.60;;;;;;4953919;28;20471;-82
2022/01/31 11:02:15;;;;;;;1.93;1.80;;;18.30;53.70;;;;;;4961392;29;20452;-84
2022/01/31 11:04:44;;;;;;;4.90;2.20;;;18.30;53.80;;;;;;4960198;29;20459;-84
2022/01/31 11:07:14;;;;;;;2.00;1.80;;;18.20;53.90;;;;;;4961007;29;20444;-84
2022/01/31 11:09:43;;;;;;;2.90;2.03;;;18.30;54.00;;;;;;4969343;28;20438;-84
2022/01/31 11:12:11;;;;;;;2.53;2.17;;;18.30;53.70;;;;;;4960814;28;20456;-84
2022/01/31 11:14:40;;;;;;;5.23;2.17;;;18.30;53.90;;;;;;4967986;28;20462;-83
2022/01/31 11:17:10;;;;;;;4.90;2.20;;;18.30;54.10;;;;;;4952108;28;20484;-83
2022/01/31 11:19:39;;;;;;;2.07;1.60;;;18.40;54.00;;;;;;4960208;28;20450;-83
2022/01/31 11:22:08;;;;;;;3.60;1.83;;;18.40;53.70;;;;;;4966915;28;20447;-83
2022/01/31 11:24:44;;;;;;;5.70;2.07;;;18.40;54.00;;;;;;4964398;28;20467;-82
2022/01/31 11:27:13;;;;;;;3.70;2.37;;;18.40;54.00;;;;;;4972188;28;20459;-82
2022/01/31 11:29:42;;;;;;;4.53;2.10;;;18.40;54.00;;;;;;4982808;28;20462;-82
2022/01/31 11:32:12;;;;;;;2.77;2.03;;;18.40;54.00;;;;;;4974920;28;20435;-84
2022/01/31 11:34:41;;;;;;;4.03;2.10;;;18.30;53.80;;;;;;4974405;28;20482;-83
2022/01/31 11:37:09;;;;;;;3.20;2.00;;;18.40;54.00;;;;;;4978680;28;20478;-83
2022/01/31 11:39:37;;;;;;;4.07;1.87;;;18.30;54.00;;;;;;4989632;28;20431;-83
2022/01/31 11:42:06;;;;;;;2.73;2.10;;;18.30;53.90;;;;;;4987592;28;20442;-83
2022/01/31 11:44:37;;;;;;;5.60;1.77;;;18.30;54.00;;;;;;4973967;28;20474;-83
2022/01/31 11:47:06;;;;;;;3.73;1.90;;;18.40;54.80;;;;;;4977896;28;20435;-82
2022/01/31 11:49:45;;;;;;;2.90;1.77;;;18.40;54.10;;;;;;4977180;28;20470;-83
2022/01/31 11:52:13;;;;;;;2.20;2.00;;;18.50;54.00;;;;;;4988314;28;20447;-83
2022/01/31 11:54:48;;;;;;;4.80;1.90;;;18.50;54.10;;;;;;4968757;28;20467;-82
2022/01/31 11:57:18;;;;;;;1.80;1.70;;;18.60;54.00;;;;;;4974375;28;20477;-83
2022/01/31 11:59:50;;;;;;;4.97;1.90;;;18.50;53.80;;;;;;4987098;28;21024;-84
2022/01/31 12:02:19;;;;;;;5.60;2.00;;;18.50;53.60;;;;;;4962931;28;20459;-84
2022/01/31 12:04:50;;;;;;;4.27;1.90;;;18.40;53.80;;;;;;4957710;28;20467;-83
2022/01/31 12:07:31;;;;;;;3.20;2.20;;;18.30;53.90;;;;;;4968438;29;20499;-82
2022/01/31 12:10:00;;;;;;;2.17;1.90;;;18.20;54.00;;;;;;4961677;28;20434;-82
2022/01/31 12:12:39;;;;;;;4.03;1.90;;;18.10;54.20;;;;;;4973905;28;20451;-82
2022/01/31 12:15:34;;;;;;;2.63;1.70;;;18.10;54.30;;;;;;4967126;29;20470;-82
2022/01/31 12:18:35;;;;;;;3.67;2.00;;;18.10;54.20;;;;;;4970323;28;20485;-82
2022/01/31 12:23:56;;;;;;;2.60;1.60;;;18.00;54.60;;;;;;4988341;28;20473;-82
2022/01/31 12:26:53;;;;;;;3.17;2.10;;;18.00;54.40;;;;;;4990247;28;20446;-82
2022/01/31 12:29:23;;;;;;;4.00;1.90;;;18.00;54.70;;;;;;4978032;28;20433;-82
2022/01/31 12:31:52;;;;;;;3.03;1.80;;;17.90;54.70;;;;;;4979307;28;20443;-83
2022/01/31 12:34:38;;;;;;;3.03;1.70;;;17.90;54.50;;;;;;4974931;28;20497;-83
2022/01/31 12:37:15;;;;;;;3.37;1.77;;;17.90;54.90;;;;;;4972189;28;20599;-84
2022/01/31 12:40:01;;;;;;;5.53;2.17;;;17.90;54.90;;;;;;4971190;28;20474;-82
2022/01/31 12:46:16;;;;;;;3.00;1.47;;;17.90;55.00;;;;;;4968093;28;20447;-82
2022/01/31 12:49:00;;;;;;;8.83;2.20;;;17.90;55.10;;;;;;4963794;29;20439;-81
2022/01/31 12:51:28;;;;;;;4.30;1.63;;;17.90;54.90;;;;;;4969934;28;20439;-82
2022/01/31 12:53:58;;;;;;;6.50;1.60;;;17.80;54.90;;;;;;4974647;28;20474;-84
2022/01/31 12:56:30;;;;;;;3.47;1.77;;;17.80;55.00;;;;;;4970093;28;20451;-83
2022/01/31 12:59:13;;;;;;;3.63;1.43;;;17.80;55.00;;;;;;4969652;29;20531;-81
2022/01/31 13:01:42;;;;;;;3.67;1.47;;;17.80;55.10;;;;;;4969787;29;20474;-83
2022/01/31 13:04:12;;;;;;;5.73;1.70;;;17.80;55.20;;;;;;4968932;28;20471;-82
2022/01/31 13:06:43;;;;;;;1.90;1.50;;;17.70;55.10;;;;;;4969736;29;20481;-83
2022/01/31 13:09:23;;;;;;;8.60;1.90;;;17.70;55.10;;;;;;4963321;28;20463;-81
2022/01/31 13:11:52;;;;;;;4.40;1.80;;;17.70;55.20;;;;;;4965465;28;20439;-83
2022/01/31 13:14:23;;;;;;;3.13;1.80;;;17.70;55.30;;;;;;4964258;28;20468;-83
2022/01/31 13:17:13;;;;;;;4.70;1.43;;;17.60;55.20;;;;;;4963587;29;20471;-81
2022/01/31 13:19:42;;;;;;;2.33;1.50;;;17.60;55.60;;;;;;4965742;29;20435;-81